createdAt,value
2022-11-02T00:00:31.403Z,2.35
2022-11-02T00:02:57.749Z,2.75
2022-11-02T00:05:24.064Z,2.33
2022-11-02T00:07:50.297Z,2.63
2022-11-02T00:10:16.501Z,3.13
2022-11-02T00:12:42.731Z,2.67
2022-11-02T00:15:08.929Z,2.97
2022-11-02T00:17:35.216Z,2.60
2022-11-02T00:20:01.410Z,2.63
2022-11-02T00:22:27.608Z,2.72
2022-11-02T00:24:53.756Z,2.53
2022-11-02T00:27:19.927Z,2.53
2022-11-02T00:29:46.101Z,2.45
2022-11-02T00:32:12.332Z,2.78
2022-11-02T00:34:38.588Z,2.30
2022-11-02T00:37:04.779Z,2.22
2022-11-02T00:39:30.939Z,3.03
2022-11-02T00:41:57.096Z,2.15
2022-11-02T00:44:23.277Z,3.15
2022-11-02T00:46:49.495Z,2.40
2022-11-02T00:49:15.723Z,2.80
2022-11-02T00:51:41.907Z,2.88
2022-11-02T00:54:08.177Z,2.55
2022-11-02T00:56:34.396Z,2.95
2022-11-02T00:59:00.623Z,2.70
2022-11-02T01:01:26.924Z,2.78
2022-11-02T01:03:53.180Z,2.85
2022-11-02T01:06:19.352Z,3.30
2022-11-02T01:08:45.553Z,2.97
2022-11-02T01:11:11.769Z,2.92
2022-11-02T01:13:37.988Z,2.80
2022-11-02T01:16:04.227Z,2.60
2022-11-02T01:18:30.471Z,3.10
2022-11-02T01:20:56.684Z,2.75
2022-11-02T01:23:22.927Z,2.80
2022-11-02T01:25:49.138Z,3.38
2022-11-02T01:28:15.371Z,3.10
2022-11-02T01:30:41.579Z,2.97
2022-11-02T01:33:07.753Z,2.85
2022-11-02T01:35:33.976Z,2.58
2022-11-02T01:38:00.185Z,2.55
2022-11-02T01:40:26.413Z,2.80
2022-11-02T01:42:52.639Z,2.78
2022-11-02T01:45:18.831Z,3.28
2022-11-02T01:47:45.000Z,2.60
2022-11-02T01:50:11.167Z,3.28
2022-11-02T01:52:37.375Z,2.67
2022-11-02T01:55:03.765Z,3.15
2022-11-02T01:57:29.970Z,3.03
2022-11-02T01:59:56.153Z,3.20
2022-11-02T02:02:22.427Z,3.03
2022-11-02T02:04:48.758Z,3.13
2022-11-02T02:07:14.994Z,2.92
2022-11-02T02:09:41.189Z,2.85
2022-11-02T02:12:07.443Z,2.72
2022-11-02T02:14:33.671Z,3.40
2022-11-02T02:16:59.839Z,2.65
2022-11-02T02:19:26.031Z,2.72
2022-11-02T02:21:52.259Z,2.67
2022-11-02T02:24:18.464Z,3.08
2022-11-02T02:26:44.719Z,2.88
2022-11-02T02:29:10.935Z,3.08
2022-11-02T02:31:37.129Z,3.17
2022-11-02T02:34:03.348Z,3.10
2022-11-02T02:36:29.583Z,3.10
2022-11-02T02:38:55.785Z,2.95
2022-11-02T02:41:21.993Z,3.35
2022-11-02T02:43:48.177Z,2.92
2022-11-02T02:46:14.597Z,2.83
2022-11-02T02:48:40.853Z,2.88
2022-11-02T02:51:07.067Z,2.33
2022-11-02T02:53:33.281Z,2.90
2022-11-02T02:55:59.507Z,2.75
2022-11-02T02:58:25.717Z,2.30
2022-11-02T03:00:51.969Z,2.70
2022-11-02T03:03:18.193Z,2.78
2022-11-02T03:05:44.445Z,2.60
2022-11-02T03:08:10.610Z,2.83
2022-11-02T03:10:36.833Z,2.85
2022-11-02T03:13:03.031Z,2.47
2022-11-02T03:15:29.262Z,2.90
2022-11-02T03:17:55.465Z,2.47
2022-11-02T03:20:21.652Z,2.85
2022-11-02T03:22:47.895Z,2.80
2022-11-02T03:25:14.126Z,2.03
2022-11-02T03:27:40.308Z,2.35
2022-11-02T03:30:06.538Z,3.05
2022-11-02T03:32:32.745Z,2.30
2022-11-02T03:34:58.978Z,2.47
2022-11-02T03:37:25.521Z,2.60
2022-11-02T03:39:51.721Z,2.05
2022-11-02T03:42:17.987Z,2.28
2022-11-02T03:44:44.188Z,2.75
2022-11-02T03:47:10.417Z,2.65
2022-11-02T03:49:36.647Z,2.65
2022-11-02T03:52:02.880Z,2.65
2022-11-02T03:54:29.086Z,2.42
2022-11-02T03:56:55.363Z,2.97
2022-11-02T03:59:21.571Z,2.15
2022-11-02T04:01:47.871Z,3.03
2022-11-02T04:04:14.140Z,2.30
2022-11-02T04:06:40.356Z,2.75
2022-11-02T04:09:06.584Z,2.38
2022-11-02T04:11:32.763Z,2.78
2022-11-02T04:13:58.988Z,2.78
2022-11-02T04:16:28.380Z,2.60
2022-11-02T04:18:54.709Z,2.60
2022-11-02T04:21:20.895Z,2.83
2022-11-02T04:23:47.094Z,2.30
2022-11-02T04:26:13.288Z,2.38
2022-11-02T04:28:39.496Z,2.35
2022-11-02T04:31:05.691Z,2.40
2022-11-02T04:33:31.927Z,2.50
2022-11-02T04:35:58.098Z,2.50
2022-11-02T04:38:24.308Z,2.13
2022-11-02T04:40:50.503Z,2.47
2022-11-02T04:43:16.709Z,3.13
2022-11-02T04:45:42.932Z,2.25
2022-11-02T04:48:09.192Z,2.55
2022-11-02T04:50:35.423Z,2.90
2022-11-02T04:53:01.628Z,2.50
2022-11-02T04:55:28.046Z,2.20
2022-11-02T04:57:54.231Z,2.38
2022-11-02T05:00:20.446Z,2.53
2022-11-02T05:02:46.830Z,3.20
2022-11-02T05:05:13.082Z,2.35
2022-11-02T05:07:39.325Z,2.20
2022-11-02T05:10:05.512Z,2.90
2022-11-02T05:12:31.735Z,2.20
2022-11-02T05:14:57.961Z,2.80
2022-11-02T05:17:24.189Z,3.30
2022-11-02T05:19:50.415Z,3.10
2022-11-02T05:22:16.611Z,2.88
2022-11-02T05:24:42.803Z,2.65
2022-11-02T05:27:09.032Z,2.60
2022-11-02T05:29:35.229Z,2.40
2022-11-02T05:32:01.486Z,2.30
2022-11-02T05:34:27.673Z,2.33
2022-11-02T05:36:53.810Z,2.78
2022-11-02T05:39:19.934Z,2.55
2022-11-02T05:41:48.025Z,3.10
2022-11-02T05:44:14.156Z,2.67
2022-11-02T05:46:40.341Z,2.40
2022-11-02T05:49:06.489Z,3.05
2022-11-02T05:51:32.627Z,2.60
2022-11-02T05:53:58.838Z,2.65
2022-11-02T05:56:25.451Z,2.15
2022-11-02T06:01:22.811Z,2.45
2022-11-02T06:03:53.199Z,2.67
2022-11-02T06:06:20.030Z,2.38
2022-11-02T06:08:46.159Z,2.55
2022-11-02T06:11:12.286Z,2.30
2022-11-02T06:13:38.426Z,2.72
2022-11-02T06:16:04.570Z,2.63
2022-11-02T06:18:30.715Z,2.70
2022-11-02T06:20:56.838Z,3.08
2022-11-02T06:23:23.007Z,2.85
2022-11-02T06:25:49.146Z,2.70
2022-11-02T06:28:15.390Z,3.33
2022-11-02T06:30:41.589Z,2.92
2022-11-02T06:33:07.787Z,2.40
2022-11-02T06:35:33.929Z,2.17
2022-11-02T06:38:00.121Z,3.05
2022-11-02T06:40:26.706Z,2.67
2022-11-02T06:43:14.990Z,2.58
2022-11-02T06:45:39.129Z,2.70
2022-11-02T06:48:05.254Z,3.05
2022-11-02T06:50:31.437Z,2.85
2022-11-02T06:52:57.644Z,2.40
2022-11-02T06:55:23.756Z,3.00
2022-11-02T06:57:49.947Z,2.63
2022-11-02T07:00:18.063Z,2.80
2022-11-02T07:02:47.269Z,2.22
2022-11-02T07:05:13.535Z,2.75
2022-11-02T07:07:39.672Z,2.60
2022-11-02T07:10:05.916Z,2.50
2022-11-02T07:12:32.082Z,2.03
2022-11-02T07:14:58.264Z,3.17
2022-11-02T07:17:29.535Z,2.88
2022-11-02T07:19:58.092Z,2.70
2022-11-02T07:22:24.310Z,2.35
2022-11-02T07:24:50.494Z,3.08
2022-11-02T07:27:16.675Z,2.60
2022-11-02T07:29:42.909Z,3.60
2022-11-02T07:32:09.171Z,2.90
2022-11-02T07:34:35.385Z,3.00
2022-11-02T07:37:01.747Z,2.78
2022-11-02T07:39:27.971Z,2.78
2022-11-02T07:41:54.181Z,2.63
2022-11-02T07:44:20.416Z,3.28
2022-11-02T07:46:46.653Z,3.40
2022-11-02T07:49:16.024Z,3.00
2022-11-02T07:51:45.038Z,2.42
2022-11-02T07:54:11.237Z,2.85
2022-11-02T07:56:37.464Z,2.50
2022-11-02T07:59:03.683Z,2.13
2022-11-02T08:01:29.921Z,2.10
2022-11-02T08:03:56.168Z,2.45
2022-11-02T08:06:22.296Z,2.92
2022-11-02T08:08:48.538Z,3.30
2022-11-02T08:11:14.756Z,2.45
2022-11-02T08:13:40.977Z,2.17
2022-11-02T08:16:07.191Z,2.42
2022-11-02T08:18:33.401Z,2.47
2022-11-02T08:20:59.628Z,2.08
2022-11-02T08:23:25.841Z,2.15
2022-11-02T08:25:52.061Z,1.80
2022-11-02T08:28:18.273Z,2.08
2022-11-02T08:30:44.468Z,1.70
2022-11-02T08:33:10.692Z,2.03
2022-11-02T08:35:36.921Z,1.85
2022-11-02T08:38:03.586Z,1.67
2022-11-02T08:40:30.104Z,2.22
2022-11-02T08:42:56.363Z,1.50
2022-11-02T08:45:22.525Z,1.75
2022-11-02T08:47:48.937Z,2.33
2022-11-02T08:50:15.333Z,1.70
2022-11-02T08:52:41.541Z,1.70
2022-11-02T08:55:07.768Z,1.63
2022-11-02T08:57:33.940Z,1.88
2022-11-02T09:00:00.147Z,1.83
2022-11-02T09:02:26.417Z,1.63
2022-11-02T09:04:52.663Z,2.17
2022-11-02T09:07:18.879Z,1.80
2022-11-02T09:09:45.060Z,2.55
2022-11-02T09:12:11.276Z,1.90
2022-11-02T09:14:37.503Z,1.77
2022-11-02T09:17:03.709Z,1.73
2022-11-02T09:19:29.944Z,2.03
2022-11-02T09:21:56.156Z,1.70
2022-11-02T09:24:22.329Z,1.98
2022-11-02T09:26:48.509Z,1.95
2022-11-02T09:29:14.780Z,1.90
2022-11-02T09:31:40.973Z,1.50
2022-11-02T09:34:07.264Z,2.45
2022-11-02T09:36:33.480Z,1.48
2022-11-02T09:38:59.653Z,1.70
2022-11-02T09:41:25.909Z,1.90
2022-11-02T09:43:52.080Z,1.65
2022-11-02T09:46:18.287Z,1.67
2022-11-02T09:48:44.484Z,1.38
2022-11-02T09:51:10.721Z,2.03
2022-11-02T09:53:36.888Z,1.40
2022-11-02T09:56:03.091Z,1.80
2022-11-02T09:58:29.220Z,1.00
2022-11-02T10:00:59.334Z,2.22
2022-11-02T10:03:27.925Z,1.58
2022-11-02T10:05:54.039Z,3.58
2022-11-02T10:08:20.169Z,1.38
2022-11-02T10:10:46.374Z,1.85
2022-11-02T10:13:12.562Z,1.95
2022-11-02T10:15:38.772Z,1.67
2022-11-02T10:18:04.932Z,1.65
2022-11-02T10:20:31.328Z,1.70
2022-11-02T10:22:57.486Z,2.00
2022-11-02T10:25:23.638Z,1.55
2022-11-02T10:27:49.863Z,2.13
2022-11-02T10:30:16.141Z,1.98
2022-11-02T10:35:31.249Z,2.00
2022-11-02T10:37:55.696Z,1.90
2022-11-02T10:40:21.859Z,2.67
2022-11-02T10:42:48.155Z,1.25
2022-11-02T10:45:14.328Z,1.92
2022-11-02T10:47:40.485Z,1.40
2022-11-02T10:50:11.926Z,1.52
2022-11-02T10:52:38.513Z,1.20
2022-11-02T10:55:04.675Z,1.70
2022-11-02T10:57:30.839Z,2.88
2022-11-02T10:59:57.178Z,1.30
2022-11-02T11:02:23.345Z,1.48
2022-11-02T11:04:49.483Z,1.38
2022-11-02T11:07:15.878Z,1.20
2022-11-02T11:09:46.514Z,1.60
2022-11-02T11:12:13.112Z,1.70
2022-11-02T11:20:11.892Z,1.70
2022-11-02T11:22:38.131Z,2.13
2022-11-02T11:25:04.291Z,1.38
2022-11-02T11:27:30.479Z,1.17
2022-11-02T11:29:56.629Z,2.53
2022-11-02T11:32:28.669Z,1.55
2022-11-02T11:34:56.259Z,1.25
2022-11-02T11:37:22.542Z,1.15
2022-11-02T11:39:52.434Z,1.42
2022-11-02T11:42:21.115Z,1.20
2022-11-02T11:44:47.414Z,1.30
2022-11-02T11:47:13.613Z,0.93
2022-11-02T11:50:07.138Z,1.75
2022-11-02T11:52:31.179Z,1.52
2022-11-02T11:54:58.316Z,1.38
2022-11-02T11:57:24.798Z,1.05
2022-11-02T11:59:51.149Z,1.88
2022-11-02T12:02:17.611Z,1.50
2022-11-02T12:04:44.010Z,1.23
2022-11-02T12:07:10.187Z,1.15
2022-11-02T12:09:36.344Z,1.60
2022-11-02T12:12:02.601Z,1.20
2022-11-02T12:14:28.806Z,1.48
2022-11-02T12:16:55.018Z,1.00
2022-11-02T12:19:21.277Z,1.00
2022-11-02T12:21:47.451Z,2.00
2022-11-02T12:24:13.675Z,1.27
2022-11-02T12:26:39.933Z,1.35
2022-11-02T12:29:06.198Z,1.30
2022-11-02T12:31:32.415Z,1.23
2022-11-02T12:33:58.648Z,1.38
2022-11-02T12:36:24.820Z,1.10
2022-11-02T12:38:51.006Z,1.23
2022-11-02T12:41:17.194Z,1.42
2022-11-02T12:43:43.364Z,1.90
2022-11-02T12:46:09.606Z,1.23
2022-11-02T12:48:35.799Z,1.10
2022-11-02T12:51:01.993Z,1.10
2022-11-02T12:53:28.242Z,1.58
2022-11-02T12:55:54.487Z,1.15
2022-11-02T12:58:20.689Z,1.20
2022-11-02T13:00:46.887Z,1.60
2022-11-02T13:03:13.289Z,1.70
2022-11-02T13:05:39.534Z,1.98
2022-11-02T13:08:08.258Z,1.20
2022-11-02T13:10:34.592Z,1.60
2022-11-02T13:13:00.982Z,1.50
2022-11-02T13:15:27.161Z,1.42
2022-11-02T13:17:53.390Z,1.83
2022-11-02T13:20:19.556Z,1.40
2022-11-02T13:22:45.743Z,1.15
2022-11-02T13:25:12.009Z,1.48
2022-11-02T13:27:39.260Z,1.17
2022-11-02T13:30:06.560Z,1.60
2022-11-02T13:32:34.171Z,1.40
2022-11-02T13:35:00.485Z,1.27
2022-11-02T13:37:26.693Z,1.58
2022-11-02T13:39:52.890Z,1.17
2022-11-02T13:42:19.017Z,1.27
2022-11-02T13:44:45.207Z,1.50
2022-11-02T13:47:11.337Z,1.52
2022-11-02T13:49:37.550Z,1.00
2022-11-02T13:52:03.722Z,1.27
2022-11-02T13:54:29.947Z,1.77
2022-11-02T13:56:56.104Z,1.58
2022-11-02T13:59:22.300Z,1.38
2022-11-02T14:01:48.696Z,1.60
2022-11-02T14:04:14.956Z,1.75
2022-11-02T14:06:41.175Z,1.55
2022-11-02T14:09:07.360Z,1.88
2022-11-02T14:11:33.551Z,1.45
2022-11-02T14:13:59.735Z,1.33
2022-11-02T14:16:26.034Z,1.20
2022-11-02T14:18:52.407Z,1.58
2022-11-02T14:21:18.616Z,1.30
2022-11-02T14:23:44.797Z,1.38
2022-11-02T14:26:10.979Z,1.25
2022-11-02T14:28:37.191Z,1.58
2022-11-02T14:31:03.378Z,1.20
2022-11-02T14:33:29.579Z,1.60
2022-11-02T14:35:55.762Z,1.77
2022-11-02T14:38:21.983Z,1.58
2022-11-02T14:40:48.133Z,1.60
2022-11-02T14:43:14.323Z,1.55
2022-11-02T14:45:40.483Z,1.60
2022-11-02T14:48:06.697Z,1.60
2022-11-02T14:50:36.198Z,2.08
2022-11-02T14:53:02.587Z,1.42
2022-11-02T14:55:28.952Z,1.95
2022-11-02T14:57:55.278Z,1.90
2022-11-02T15:00:23.802Z,1.55
2022-11-02T15:02:50.009Z,1.13
2022-11-02T15:05:16.210Z,1.60
2022-11-02T15:07:42.458Z,1.58
2022-11-02T15:10:08.658Z,1.50
2022-11-02T15:12:34.927Z,1.38
2022-11-02T15:15:01.081Z,1.45
2022-11-02T15:17:27.277Z,1.30
2022-11-02T15:19:53.537Z,1.50
2022-11-02T15:22:19.772Z,1.42
2022-11-02T15:24:46.090Z,1.52
2022-11-02T15:27:12.324Z,1.95
2022-11-02T15:29:38.515Z,2.00
2022-11-02T15:32:04.710Z,1.63
2022-11-02T15:34:30.941Z,1.60
2022-11-02T15:36:57.205Z,2.08
2022-11-02T15:39:26.351Z,1.40
2022-11-02T15:41:52.554Z,1.50
2022-11-02T15:44:18.716Z,1.25
2022-11-02T15:46:44.906Z,2.08
2022-11-02T15:49:11.128Z,1.40
2022-11-02T15:51:37.276Z,1.63
2022-11-02T15:54:03.532Z,1.60
2022-11-02T15:56:29.786Z,1.92
2022-11-02T15:58:56.043Z,1.48
2022-11-02T16:01:22.414Z,1.70
2022-11-02T16:03:48.752Z,1.60
2022-11-02T16:06:15.010Z,2.35
2022-11-02T16:08:41.242Z,1.70
2022-11-02T16:11:07.497Z,2.03
2022-11-02T16:13:48.806Z,1.73
2022-11-02T16:16:19.945Z,1.63
2022-11-02T16:18:46.156Z,2.13
2022-11-02T16:21:12.417Z,1.85
2022-11-02T16:23:38.655Z,2.42
2022-11-02T16:26:04.835Z,1.98
2022-11-02T16:28:31.057Z,1.45
2022-11-02T16:30:57.224Z,1.80
2022-11-02T16:33:23.416Z,1.52
2022-11-02T16:35:49.728Z,1.33
2022-11-02T16:38:15.972Z,2.30
2022-11-02T16:40:42.158Z,1.73
2022-11-02T16:43:08.383Z,1.40
2022-11-02T16:45:37.174Z,1.88
2022-11-02T16:48:06.864Z,2.05
2022-11-02T16:50:33.388Z,1.95
2022-11-02T16:52:59.708Z,2.20
2022-11-02T16:55:25.931Z,2.78
2022-11-02T16:57:52.511Z,2.25
2022-11-02T17:00:18.761Z,2.75
2022-11-02T17:02:44.965Z,2.05
2022-11-02T17:05:11.170Z,1.88
2022-11-02T17:07:37.469Z,2.10
2022-11-02T17:10:05.946Z,2.17
2022-11-02T17:12:32.266Z,3.85
2022-11-02T17:14:58.482Z,2.10
2022-11-02T17:17:25.687Z,2.05
2022-11-02T17:19:51.818Z,2.00
2022-11-02T17:22:17.985Z,2.13
2022-11-02T17:24:44.158Z,1.90
2022-11-02T17:27:10.332Z,2.22
2022-11-02T17:29:36.469Z,1.80
2022-11-02T17:32:02.600Z,2.35
2022-11-02T17:34:28.745Z,1.88
2022-11-02T17:36:54.887Z,2.10
2022-11-02T17:42:11.635Z,2.50
2022-11-02T17:44:37.855Z,2.70
2022-11-02T17:47:04.036Z,2.40
2022-11-02T17:49:30.246Z,3.13
2022-11-02T17:51:56.456Z,3.03
2022-11-02T17:54:22.613Z,3.10
2022-11-02T17:56:48.788Z,2.80
2022-11-02T17:59:14.969Z,2.95
2022-11-02T18:01:41.361Z,3.25
2022-11-02T18:04:07.603Z,2.92
2022-11-02T18:06:33.814Z,2.83
2022-11-02T18:09:00.040Z,2.60
2022-11-02T18:11:26.784Z,2.28
2022-11-02T18:16:33.105Z,2.10
2022-11-02T18:18:59.261Z,3.13
2022-11-02T18:21:25.439Z,3.03
2022-11-02T18:23:51.664Z,2.85
2022-11-02T18:26:17.879Z,3.15
2022-11-02T18:28:44.011Z,3.60
2022-11-02T18:31:10.145Z,3.38
2022-11-02T18:33:36.383Z,2.60
2022-11-02T18:36:02.554Z,2.97
2022-11-02T18:38:28.734Z,3.03
2022-11-02T18:40:54.920Z,2.20
2022-11-02T18:43:21.061Z,2.47
2022-11-02T18:45:47.238Z,2.70
2022-11-02T18:48:13.385Z,2.13
2022-11-02T18:50:39.564Z,2.80
2022-11-02T18:53:05.763Z,2.60
2022-11-02T18:55:31.936Z,3.15
2022-11-02T18:57:58.085Z,2.95
2022-11-02T19:00:24.263Z,2.90
2022-11-02T19:02:50.526Z,3.17
2022-11-02T19:05:16.691Z,2.53
2022-11-02T19:07:42.853Z,2.35
2022-11-02T19:10:09.007Z,2.90
2022-11-02T19:12:35.131Z,4.50
2022-11-02T19:15:01.298Z,3.40
2022-11-02T19:17:27.453Z,3.67
2022-11-02T19:19:53.644Z,3.42
2022-11-02T19:22:19.821Z,3.70
2022-11-02T19:24:45.985Z,3.92
2022-11-02T19:27:12.174Z,3.72
2022-11-02T19:29:38.345Z,4.53
2022-11-02T19:32:04.534Z,4.47
2022-11-02T19:34:30.696Z,3.65
2022-11-02T19:36:56.915Z,3.88
2022-11-02T19:39:23.095Z,5.10
2022-11-02T19:41:49.325Z,4.57
2022-11-02T19:44:15.454Z,5.80
2022-11-02T19:49:07.843Z,4.13
2022-11-02T19:51:34.009Z,4.50
2022-11-02T19:54:00.270Z,5.18
2022-11-02T19:56:26.426Z,5.72
2022-11-02T19:58:52.573Z,5.32
2022-11-02T20:01:18.856Z,5.60
2022-11-02T20:03:45.099Z,5.25
2022-11-02T20:06:11.311Z,6.30
2022-11-02T20:08:37.447Z,5.68
2022-11-02T20:11:03.652Z,5.32
2022-11-02T20:13:29.801Z,4.80
2022-11-02T20:15:55.957Z,4.10
2022-11-02T20:18:22.564Z,4.60
2022-11-02T20:20:49.094Z,4.15
2022-11-02T20:23:15.324Z,4.38
2022-11-02T20:25:41.571Z,4.43
2022-11-02T20:28:08.017Z,3.70
2022-11-02T20:30:34.605Z,4.38
2022-11-02T20:33:00.759Z,4.05
2022-11-02T20:35:26.924Z,4.10
2022-11-02T20:37:53.181Z,4.10
2022-11-02T20:40:19.345Z,3.63
2022-11-02T20:42:45.494Z,4.03
2022-11-02T20:45:11.668Z,3.60
2022-11-02T20:47:37.933Z,4.00
2022-11-02T20:50:04.094Z,3.85
2022-11-02T20:55:24.504Z,4.40
2022-11-02T20:57:50.641Z,5.03
2022-11-02T21:00:16.793Z,3.65
2022-11-02T21:02:42.953Z,4.18
2022-11-02T21:05:09.205Z,3.45
2022-11-02T21:07:35.346Z,3.22
2022-11-02T21:10:01.520Z,3.15
2022-11-02T21:12:27.639Z,3.58
2022-11-02T21:14:53.816Z,3.15
2022-11-02T21:17:19.942Z,3.20
2022-11-02T21:19:46.080Z,2.88
2022-11-02T21:22:12.198Z,3.75
2022-11-02T21:24:38.352Z,3.80
2022-11-02T21:27:04.505Z,3.80
2022-11-02T21:29:30.655Z,3.80
2022-11-02T21:31:56.823Z,3.25
2022-11-02T21:34:22.963Z,3.13
2022-11-02T21:36:49.089Z,2.65
2022-11-02T21:39:15.240Z,2.83
2022-11-02T21:41:41.368Z,2.63
2022-11-02T21:44:07.523Z,2.70
2022-11-02T21:46:33.694Z,2.35
2022-11-02T21:48:59.847Z,2.58
2022-11-02T21:51:25.971Z,2.25
2022-11-02T21:53:52.130Z,2.90
2022-11-02T21:56:18.250Z,2.38
2022-11-02T21:58:46.063Z,2.75
2022-11-02T22:01:12.689Z,3.13
2022-11-02T22:03:38.936Z,2.42
2022-11-02T22:06:05.077Z,2.20
2022-11-02T22:08:31.189Z,2.40
2022-11-02T22:10:57.333Z,2.25
2022-11-02T22:13:23.441Z,2.10
2022-11-02T22:15:49.579Z,2.53
2022-11-02T22:18:15.719Z,2.75
2022-11-02T22:20:41.875Z,2.22
2022-11-02T22:23:08.228Z,2.25
2022-11-02T22:25:34.563Z,2.30
2022-11-02T22:28:00.705Z,2.30
2022-11-02T22:30:26.828Z,2.20
2022-11-02T22:32:52.961Z,2.20
2022-11-02T22:35:19.072Z,1.95
2022-11-02T22:37:45.215Z,2.20
2022-11-02T22:40:11.339Z,2.15
2022-11-02T22:42:39.879Z,2.30
2022-11-02T22:45:08.615Z,2.53
2022-11-02T22:47:34.731Z,2.58
2022-11-02T22:50:00.886Z,4.70
2022-11-02T22:52:27.056Z,2.40
2022-11-02T22:54:53.165Z,2.25
2022-11-02T22:57:19.302Z,2.00
2022-11-02T22:59:45.449Z,1.90
2022-11-02T23:02:11.632Z,2.65
2022-11-02T23:04:37.778Z,2.47
2022-11-02T23:07:03.912Z,2.30
2022-11-02T23:09:30.050Z,2.25
2022-11-02T23:11:56.195Z,2.78
2022-11-02T23:14:22.308Z,2.75
2022-11-02T23:16:48.422Z,2.15
2022-11-02T23:19:14.547Z,2.38
2022-11-02T23:21:40.684Z,2.20
2022-11-02T23:24:06.799Z,2.13
2022-11-02T23:26:32.903Z,2.15
2022-11-02T23:28:59.051Z,2.45
2022-11-02T23:31:25.156Z,2.22
2022-11-02T23:33:51.288Z,2.50
2022-11-02T23:36:17.435Z,2.17
2022-11-02T23:38:43.565Z,2.50
2022-11-02T23:41:09.692Z,2.50
2022-11-02T23:43:35.827Z,2.33
2022-11-02T23:46:01.958Z,2.28
2022-11-02T23:48:28.099Z,1.88
2022-11-02T23:50:54.250Z,1.85
2022-11-02T23:53:20.373Z,2.20
2022-11-02T23:55:46.498Z,2.50
2022-11-02T23:58:12.662Z,2.25
